Buoy 46533

sailwx.info

Track history (hours):
 
Tides and Currents Weather Stations Pressure Air Temp Water Temp Dewpoint Dewpoint Depression Visibility Wind Speed Wind Dir Waves Ship Positions

Drifting buoy 46533

Last reported at 2016-Feb-08 19:00 UTC. Time now 2016-Feb-08 21:19 UTC.
Position N 57°41' W 138°52'.

Water temperature 6.8 ° C

Date/timePositionNaut miles runAvg speedWind from/ knotsBaromVisibWave heightAir tempDewpointWater temp
2016-Feb-08 19:00N 57°41' W 138°52'1 0.3 6.8
2016-Feb-08 17:00N 57°41' W 138°51'2 1.5 6.8
2016-Feb-08 16:00N 57°40' W 138°48'0 0.3 6.8
2016-Feb-08 15:00N 57°40' W 138°48'1 1.0 6.8
2016-Feb-08 14:00N 57°40' W 138°46'0 0.4 6.8
2016-Feb-08 13:00N 57°40' W 138°46'0 0.2 6.8
2016-Feb-08 12:00N 57°40' W 138°47'1 0.3 6.8
2016-Feb-08 10:00N 57°39' W 138°46'4 0.9 6.8
2016-Feb-08 06:00N 57°36' W 138°43'1 1.4 6.7
2016-Feb-08 05:00N 57°35' W 138°43'0 0.4 6.7
2016-Feb-08 04:00N 57°34' W 138°43'1 0.6 6.7
2016-Feb-08 03:00N 57°34' W 138°42'1 0.7 6.7
2016-Feb-08 02:00N 57°33' W 138°42'0 0.3 6.7
2016-Feb-08 01:00N 57°33' W 138°42'1 0.7 6.7
2016-Feb-08 00:00N 57°32' W 138°41'0 0.3 6.7
2016-Feb-07 23:00N 57°32' W 138°41'1 0.6 6.7
2016-Feb-07 22:00N 57°33' W 138°41'2 1.8 6.7
2016-Feb-07 21:00N 57°31' W 138°40'2 1.0 6.7
2016-Feb-07 19:00N 57°29' W 138°40'1 0.4 6.6
2016-Feb-07 16:00N 57°28' W 138°40'1 0.7 6.8
2016-Feb-07 15:00N 57°28' W 138°39'1 1.4 7.0
2016-Feb-07 14:00N 57°27' W 138°36'2 2.1 7.0
2016-Feb-07 13:00N 57°26' W 138°33'2 1.5 7.0
2016-Feb-07 12:00N 57°26' W 138°30'0 0.0 6.9
2016-Feb-07 11:00N 57°26' W 138°30'0 0.1 6.9
2016-Feb-07 10:00N 57°26' W 138°31'4 2.2 6.9
2016-Feb-07 08:00N 57°24' W 138°23'0 0.1 6.8
2016-Feb-07 07:00N 57°24' W 138°23'1 1.0 7.0
2016-Feb-07 06:00N 57°23' W 138°22'1 1.2 7.1
2016-Feb-07 05:00N 57°23' W 138°20'1 0.7 7.1
2016-Feb-07 03:00N 57°23' W 138°17'1 0.7 7.2
2016-Feb-07 02:00N 57°22' W 138°17'0 0.2 7.2
2016-Feb-07 01:00N 57°22' W 138°17'1 0.7 7.2
2016-Feb-07 00:00N 57°22' W 138°16'1 0.9 7.2
2016-Feb-06 23:00N 57°21' W 138°15'1 0.7 7.2
2016-Feb-06 21:00N 57°20' W 138°13'1 0.6 7.1
2016-Feb-06 19:00N 57°20' W 138°11'0 0.4 6.9
2016-Feb-06 18:00N 57°20' W 138°11'1 0.6 6.9
2016-Feb-06 17:00N 57°20' W 138°10'0 0.3 6.8
2016-Feb-06 16:00N 57°20' W 138°11'0 0.1 6.8
2016-Feb-06 15:00N 57°20' W 138°11'0 0.4 6.9
2016-Feb-06 14:00N 57°20' W 138°10'1 0.5 6.9
2016-Feb-06 13:00N 57°20' W 138°11'0 0.0 7.0
2016-Feb-06 12:00N 57°20' W 138°11'0 0.2 7.0
2016-Feb-06 11:00N 57°20' W 138°11'2 0.5 7.0
2016-Feb-06 07:00N 57°18' W 138°09'0 0.1 6.9
2016-Feb-06 05:00N 57°18' W 138°09'0 0.2 7.0
2016-Feb-06 04:00N 57°18' W 138°08'1 0.6 7.0
2016-Feb-06 03:00N 57°17' W 138°08'1 0.8 7.0
2016-Feb-06 02:00N 57°18' W 138°06'1 0.3 7.0
2016-Feb-06 00:00N 57°18' W 138°07'0 0.0 7.0
2016-Feb-05 23:00N 57°18' W 138°07'0 0.3 7.0
2016-Feb-05 22:00N 57°18' W 138°07'1 0.7 7.0
2016-Feb-05 20:00N 57°17' W 138°07'0 0.1 7.0
2016-Feb-05 18:00N 57°17' W 138°07'1 0.5 7.0
2016-Feb-05 16:00N 57°16' W 138°06'0 0.4 6.9
2016-Feb-05 15:00N 57°16' W 138°05'0 0.1 6.9
2016-Feb-05 11:00N 57°16' W 138°05'1 0.2 7.0
2016-Feb-05 04:00N 57°15' W 138°04'1 0.7 7.1
2016-Feb-05 02:00N 57°14' W 138°05'1 0.4 7.1
2016-Feb-05 00:00N 57°13' W 138°03'0 0.1 7.1
2016-Feb-04 23:00N 57°13' W 138°03'1 0.7 7.1
2016-Feb-04 22:00N 57°13' W 138°04'0 0.4 7.1
2016-Feb-04 21:00N 57°13' W 138°04'1 0.8 7.1
2016-Feb-04 20:00N 57°12' W 138°04'2 0.5 7.1
2016-Feb-04 16:00N 57°10' W 138°04'1 1.4 7.1
2016-Feb-04 15:00N 57°09' W 138°03'2 2.3 7.1
2016-Feb-04 14:00N 57°08' W 137°60'1 0.5 7.1
2016-Feb-04 13:00N 57°08' W 137°59'1 0.6 7.1
2016-Feb-04 12:00N 57°07' W 137°58'3 0.5 7.0
2016-Feb-04 07:00N 57°05' W 137°56'1 0.5 7.1
2016-Feb-04 05:00N 57°04' W 137°56'1 0.4 7.1
2016-Feb-04 03:00N 57°03' W 137°55'1 0.3 7.1
2016-Feb-04 01:00N 57°02' W 137°55'1 0.5 7.1
2016-Feb-03 23:00N 57°01' W 137°54'3 0.8 7.1
2016-Feb-03 19:00N 56°60' W 137°49'2 0.9 7.0
2016-Feb-03 17:00N 56°59' W 137°46'3 0.7 7.0
2016-Feb-03 13:00N 56°56' W 137°44'0 0.0 7.1
2016-Feb-03 12:00N 56°56' W 137°44'6 0.8 7.1
2016-Feb-03 05:00N 56°53' W 137°35'2 0.4 7.0
2016-Feb-03 01:00N 56°52' W 137°33'4 1.0 6.8
2016-Feb-02 21:00N 56°49' W 137°28'0 0.0 6.9
2016-Feb-02 20:00N 56°49' W 137°28'0 0.2 6.9
2016-Feb-02 18:00N 56°49' W 137°28'2 0.7 6.9
2016-Feb-02 15:00N 56°48' W 137°25'1 0.7 6.9
2016-Feb-02 13:00N 56°47' W 137°22'1 0.7 6.8
2016-Feb-02 12:00N 56°46' W 137°23'3 3.4 6.8
2016-Feb-02 11:00N 56°44' W 137°19'1 0.2 6.7
2016-Feb-02 07:00N 56°43' W 137°18'2 0.5 6.7
2016-Feb-02 04:00N 56°42' W 137°16'0 0.1 6.8
2016-Feb-02 02:00N 56°42' W 137°16'0 0.0 6.8
2016-Feb-02 01:00N 56°42' W 137°16'3 0.7 6.8
2016-Feb-01 20:00N 56°39' W 137°15'0 0.0 6.9
2016-Feb-01 19:00N 56°39' W 137°15'1 1.2 6.9
2016-Feb-01 18:00N 56°38' W 137°14'1 0.3 6.9
2016-Feb-01 15:00N 56°38' W 137°12'0 0.2 6.9
2016-Feb-01 14:00N 56°38' W 137°12'0 0.1 6.9
2016-Feb-01 12:00N 56°37' W 137°12'2 2.1 6.9
2016-Feb-01 11:00N 56°36' W 137°14'0 0.0 6.9
2016-Feb-01 10:00N 56°36' W 137°14'1 0.3 6.9
2016-Feb-01 07:00N 56°35' W 137°14'1 0.8 6.9
2016-Feb-01 06:00N 56°35' W 137°13'0 0.5 6.9
2016-Feb-01 05:00N 56°34' W 137°13'0 0.2 6.9
2016-Feb-01 03:00N 56°34' W 137°12'1 0.3 6.9
2016-Feb-01 01:00N 56°35' W 137°12'0 0.5 6.9
2016-Feb-01 00:00N 56°35' W 137°12'1 0.9 6.9
2016-Jan-31 23:00N 56°36' W 137°14'1 0.7 6.9
2016-Jan-31 22:00N 56°35' W 137°13'2 1.1 6.9
2016-Jan-31 20:00N 56°35' W 137°17'1 0.3 6.9
2016-Jan-31 18:00N 56°34' W 137°16'0 0.1 6.8
2016-Jan-31 17:00N 56°34' W 137°16'0 0.3 6.8
2016-Jan-31 16:00N 56°34' W 137°16'0 0.2 6.8
2016-Jan-31 15:00N 56°35' W 137°15'0 0.4 6.8
2016-Jan-31 14:00N 56°35' W 137°15'0 0.5 6.8
2016-Jan-31 13:00N 56°35' W 137°16'0 0.4 6.8
2016-Jan-31 12:00N 56°35' W 137°16'0 0.5 6.7
2016-Jan-31 11:00N 56°36' W 137°17'0 0.5 6.7
2016-Jan-31 10:00N 56°36' W 137°17'1 0.5 6.7
2016-Jan-31 08:00N 56°36' W 137°19'0 0.3 6.7
2016-Jan-31 07:00N 56°36' W 137°20'0 0.5 6.7
2016-Jan-31 06:00N 56°36' W 137°19'0 0.5 6.7
2016-Jan-31 05:00N 56°36' W 137°20'0 0.4 6.8
2016-Jan-31 04:00N 56°36' W 137°19'1 0.8 6.8
2016-Jan-31 03:00N 56°36' W 137°20'0 0.0 6.8
2016-Jan-31 02:00N 56°36' W 137°20'0 0.2 6.8
2016-Jan-31 01:00N 56°36' W 137°20'0 0.0 6.8
2016-Jan-31 00:00N 56°36' W 137°20'1 0.6 6.9
2016-Jan-30 23:00N 56°37' W 137°21'0 0.2 6.9
2016-Jan-30 22:00N 56°37' W 137°22'0 0.2 6.9
2016-Jan-30 20:00N 56°37' W 137°22'1 0.5 6.9
2016-Jan-30 18:00N 56°38' W 137°23'1 0.8 6.8
2016-Jan-30 17:00N 56°38' W 137°24'1 0.3 6.9
2016-Jan-30 15:00N 56°39' W 137°25'0 0.2 6.9
2016-Jan-30 14:00N 56°39' W 137°25'1 0.1 6.9
2016-Jan-30 06:00N 56°39' W 137°25'1 1.3 6.9
2016-Jan-30 05:00N 56°40' W 137°23'2 0.3 6.9
2016-Jan-30 00:00N 56°41' W 137°26'0 0.0 7.0
2016-Jan-29 23:00N 56°41' W 137°26'2 0.4 7.0
2016-Jan-29 19:00N 56°40' W 137°23'   7.0
Track history (hours):
 
Tides and Currents Weather Stations Pressure Air Temp Water Temp Dewpoint Dewpoint Depression Visibility Wind Speed Wind Dir Waves Ship Positions

Drifting buoy 46533

Last reported at 2016-Feb-08 19:00 UTC. Time now 2016-Feb-08 21:19 UTC.
Position N 57°41' W 138°52'.

Water temperature 6.8 ° C

Date/timePositionNaut miles runAvg speedWind from/ knotsBaromVisibWave heightAir tempDewpointWater temp
2016-Feb-08 19:00N 57°41' W 138°52'1 0.3 6.8
2016-Feb-08 17:00N 57°41' W 138°51'2 1.5 6.8
2016-Feb-08 16:00N 57°40' W 138°48'0 0.3 6.8
2016-Feb-08 15:00N 57°40' W 138°48'1 1.0 6.8
2016-Feb-08 14:00N 57°40' W 138°46'0 0.4 6.8
2016-Feb-08 13:00N 57°40' W 138°46'0 0.2 6.8
2016-Feb-08 12:00N 57°40' W 138°47'1 0.3 6.8
2016-Feb-08 10:00N 57°39' W 138°46'4 0.9 6.8
2016-Feb-08 06:00N 57°36' W 138°43'1 1.4 6.7
2016-Feb-08 05:00N 57°35' W 138°43'0 0.4 6.7
2016-Feb-08 04:00N 57°34' W 138°43'1 0.6 6.7
2016-Feb-08 03:00N 57°34' W 138°42'1 0.7 6.7
2016-Feb-08 02:00N 57°33' W 138°42'0 0.3 6.7
2016-Feb-08 01:00N 57°33' W 138°42'1 0.7 6.7
2016-Feb-08 00:00N 57°32' W 138°41'0 0.3 6.7
2016-Feb-07 23:00N 57°32' W 138°41'1 0.6 6.7
2016-Feb-07 22:00N 57°33' W 138°41'2 1.8 6.7
2016-Feb-07 21:00N 57°31' W 138°40'2 1.0 6.7
2016-Feb-07 19:00N 57°29' W 138°40'1 0.4 6.6
2016-Feb-07 16:00N 57°28' W 138°40'1 0.7 6.8
2016-Feb-07 15:00N 57°28' W 138°39'1 1.4 7.0
2016-Feb-07 14:00N 57°27' W 138°36'2 2.1 7.0
2016-Feb-07 13:00N 57°26' W 138°33'2 1.5 7.0
2016-Feb-07 12:00N 57°26' W 138°30'0 0.0 6.9
2016-Feb-07 11:00N 57°26' W 138°30'0 0.1 6.9
2016-Feb-07 10:00N 57°26' W 138°31'4 2.2 6.9
2016-Feb-07 08:00N 57°24' W 138°23'0 0.1 6.8
2016-Feb-07 07:00N 57°24' W 138°23'1 1.0 7.0
2016-Feb-07 06:00N 57°23' W 138°22'1 1.2 7.1
2016-Feb-07 05:00N 57°23' W 138°20'1 0.7 7.1
2016-Feb-07 03:00N 57°23' W 138°17'1 0.7 7.2
2016-Feb-07 02:00N 57°22' W 138°17'0 0.2 7.2
2016-Feb-07 01:00N 57°22' W 138°17'1 0.7 7.2
2016-Feb-07 00:00N 57°22' W 138°16'1 0.9 7.2
2016-Feb-06 23:00N 57°21' W 138°15'1 0.7 7.2
2016-Feb-06 21:00N 57°20' W 138°13'1 0.6 7.1
2016-Feb-06 19:00N 57°20' W 138°11'0 0.4 6.9
2016-Feb-06 18:00N 57°20' W 138°11'1 0.6 6.9
2016-Feb-06 17:00N 57°20' W 138°10'0 0.3 6.8
2016-Feb-06 16:00N 57°20' W 138°11'0 0.1 6.8
2016-Feb-06 15:00N 57°20' W 138°11'0 0.4 6.9
2016-Feb-06 14:00N 57°20' W 138°10'1 0.5 6.9
2016-Feb-06 13:00N 57°20' W 138°11'0 0.0 7.0
2016-Feb-06 12:00N 57°20' W 138°11'0 0.2 7.0
2016-Feb-06 11:00N 57°20' W 138°11'2 0.5 7.0
2016-Feb-06 07:00N 57°18' W 138°09'0 0.1 6.9
2016-Feb-06 05:00N 57°18' W 138°09'0 0.2 7.0
2016-Feb-06 04:00N 57°18' W 138°08'1 0.6 7.0
2016-Feb-06 03:00N 57°17' W 138°08'1 0.8 7.0
2016-Feb-06 02:00N 57°18' W 138°06'1 0.3 7.0
2016-Feb-06 00:00N 57°18' W 138°07'0 0.0 7.0
2016-Feb-05 23:00N 57°18' W 138°07'0 0.3 7.0
2016-Feb-05 22:00N 57°18' W 138°07'1 0.7 7.0
2016-Feb-05 20:00N 57°17' W 138°07'0 0.1 7.0
2016-Feb-05 18:00N 57°17' W 138°07'1 0.5 7.0
2016-Feb-05 16:00N 57°16' W 138°06'0 0.4 6.9
2016-Feb-05 15:00N 57°16' W 138°05'0 0.1 6.9
2016-Feb-05 11:00N 57°16' W 138°05'1 0.2 7.0
2016-Feb-05 04:00N 57°15' W 138°04'1 0.7 7.1
2016-Feb-05 02:00N 57°14' W 138°05'1 0.4 7.1
2016-Feb-05 00:00N 57°13' W 138°03'0 0.1 7.1
2016-Feb-04 23:00N 57°13' W 138°03'1 0.7 7.1
2016-Feb-04 22:00N 57°13' W 138°04'0 0.4 7.1
2016-Feb-04 21:00N 57°13' W 138°04'1 0.8 7.1
2016-Feb-04 20:00N 57°12' W 138°04'2 0.5 7.1
2016-Feb-04 16:00N 57°10' W 138°04'1 1.4 7.1
2016-Feb-04 15:00N 57°09' W 138°03'2 2.3 7.1
2016-Feb-04 14:00N 57°08' W 137°60'1 0.5 7.1
2016-Feb-04 13:00N 57°08' W 137°59'1 0.6 7.1
2016-Feb-04 12:00N 57°07' W 137°58'3 0.5 7.0
2016-Feb-04 07:00N 57°05' W 137°56'1 0.5 7.1
2016-Feb-04 05:00N 57°04' W 137°56'1 0.4 7.1
2016-Feb-04 03:00N 57°03' W 137°55'1 0.3 7.1
2016-Feb-04 01:00N 57°02' W 137°55'1 0.5 7.1
2016-Feb-03 23:00N 57°01' W 137°54'3 0.8 7.1
2016-Feb-03 19:00N 56°60' W 137°49'2 0.9 7.0
2016-Feb-03 17:00N 56°59' W 137°46'3 0.7 7.0
2016-Feb-03 13:00N 56°56' W 137°44'0 0.0 7.1
2016-Feb-03 12:00N 56°56' W 137°44'6 0.8 7.1
2016-Feb-03 05:00N 56°53' W 137°35'2 0.4 7.0
2016-Feb-03 01:00N 56°52' W 137°33'4 1.0 6.8
2016-Feb-02 21:00N 56°49' W 137°28'0 0.0 6.9
2016-Feb-02 20:00N 56°49' W 137°28'0 0.2 6.9
2016-Feb-02 18:00N 56°49' W 137°28'2 0.7 6.9
2016-Feb-02 15:00N 56°48' W 137°25'1 0.7 6.9
2016-Feb-02 13:00N 56°47' W 137°22'1 0.7 6.8
2016-Feb-02 12:00N 56°46' W 137°23'3 3.4 6.8
2016-Feb-02 11:00N 56°44' W 137°19'1 0.2 6.7
2016-Feb-02 07:00N 56°43' W 137°18'2 0.5 6.7
2016-Feb-02 04:00N 56°42' W 137°16'0 0.1 6.8
2016-Feb-02 02:00N 56°42' W 137°16'0 0.0 6.8
2016-Feb-02 01:00N 56°42' W 137°16'3 0.7 6.8
2016-Feb-01 20:00N 56°39' W 137°15'0 0.0 6.9
2016-Feb-01 19:00N 56°39' W 137°15'1 1.2 6.9
2016-Feb-01 18:00N 56°38' W 137°14'1 0.3 6.9
2016-Feb-01 15:00N 56°38' W 137°12'0 0.2 6.9
2016-Feb-01 14:00N 56°38' W 137°12'0 0.1 6.9
2016-Feb-01 12:00N 56°37' W 137°12'2 2.1 6.9
2016-Feb-01 11:00N 56°36' W 137°14'0 0.0 6.9
2016-Feb-01 10:00N 56°36' W 137°14'1 0.3 6.9
2016-Feb-01 07:00N 56°35' W 137°14'1 0.8 6.9
2016-Feb-01 06:00N 56°35' W 137°13'0 0.5 6.9
2016-Feb-01 05:00N 56°34' W 137°13'0 0.2 6.9
2016-Feb-01 03:00N 56°34' W 137°12'1 0.3 6.9
2016-Feb-01 01:00N 56°35' W 137°12'0 0.5 6.9
2016-Feb-01 00:00N 56°35' W 137°12'1 0.9 6.9
2016-Jan-31 23:00N 56°36' W 137°14'1 0.7 6.9
2016-Jan-31 22:00N 56°35' W 137°13'2 1.1 6.9
2016-Jan-31 20:00N 56°35' W 137°17'1 0.3 6.9
2016-Jan-31 18:00N 56°34' W 137°16'0 0.1 6.8
2016-Jan-31 17:00N 56°34' W 137°16'0 0.3 6.8
2016-Jan-31 16:00N 56°34' W 137°16'0 0.2 6.8
2016-Jan-31 15:00N 56°35' W 137°15'0 0.4 6.8
2016-Jan-31 14:00N 56°35' W 137°15'0 0.5 6.8
2016-Jan-31 13:00N 56°35' W 137°16'0 0.4 6.8
2016-Jan-31 12:00N 56°35' W 137°16'0 0.5 6.7
2016-Jan-31 11:00N 56°36' W 137°17'0 0.5 6.7
2016-Jan-31 10:00N 56°36' W 137°17'1 0.5 6.7
2016-Jan-31 08:00N 56°36' W 137°19'0 0.3 6.7
2016-Jan-31 07:00N 56°36' W 137°20'0 0.5 6.7
2016-Jan-31 06:00N 56°36' W 137°19'0 0.5 6.7
2016-Jan-31 05:00N 56°36' W 137°20'0 0.4 6.8
2016-Jan-31 04:00N 56°36' W 137°19'1 0.8 6.8
2016-Jan-31 03:00N 56°36' W 137°20'0 0.0 6.8
2016-Jan-31 02:00N 56°36' W 137°20'0 0.2 6.8
2016-Jan-31 01:00N 56°36' W 137°20'0 0.0 6.8
2016-Jan-31 00:00N 56°36' W 137°20'1 0.6 6.9
2016-Jan-30 23:00N 56°37' W 137°21'0 0.2 6.9
2016-Jan-30 22:00N 56°37' W 137°22'0 0.2 6.9
2016-Jan-30 20:00N 56°37' W 137°22'1 0.5 6.9
2016-Jan-30 18:00N 56°38' W 137°23'1 0.8 6.8
2016-Jan-30 17:00N 56°38' W 137°24'1 0.3 6.9
2016-Jan-30 15:00N 56°39' W 137°25'0 0.2 6.9
2016-Jan-30 14:00N 56°39' W 137°25'1 0.1 6.9
2016-Jan-30 06:00N 56°39' W 137°25'1 1.3 6.9
2016-Jan-30 05:00N 56°40' W 137°23'2 0.3 6.9
2016-Jan-30 00:00N 56°41' W 137°26'0 0.0 7.0
2016-Jan-29 23:00N 56°41' W 137°26'2 0.4 7.0
2016-Jan-29 19:00N 56°40' W 137°23'   7.0

Dump ship's entire track history